Time;durP1;ratioP1;P1;durP2;ratioP2;P2;SDS_P1;SDS_P2;PMS_P1;PMS_P2;Temp;Humidity;BMP_temperature;BMP_pressure;BME280_temperature;BME280_humidity;BME280_pressure;Samples;Min_cycle;Max_cycle;Signal;HPM_P1;HPM_P2
2021/05/21 00:02:21;;;;;;;6.55;1.70;;;;;;;13.89;44.18;98754.44;4963313;28;20068;-60
2021/05/21 00:04:47;;;;;;;5.22;1.60;;;;;;;14.07;44.33;98796.09;4960848;28;20026;-63
2021/05/21 00:07:12;;;;;;;5.70;1.52;;;;;;;13.95;43.98;98782.53;4980907;28;20030;-62
2021/05/21 00:09:38;;;;;;;5.95;1.60;;;;;;;13.99;44.56;98791.69;4978481;28;20365;-61
2021/05/21 00:12:04;;;;;;;4.57;1.23;;;;;;;13.82;44.55;98743.00;4977781;28;20118;-61
2021/05/21 00:14:29;;;;;;;5.60;1.60;;;;;;;13.73;45.21;98716.03;4997205;28;20031;-61
2021/05/21 00:16:54;;;;;;;6.00;1.55;;;;;;;13.71;45.12;98730.22;4979734;28;20064;-62
2021/05/21 00:19:20;;;;;;;5.15;1.65;;;;;;;13.89;45.34;98772.75;4982402;28;20034;-62
2021/05/21 00:21:45;;;;;;;4.75;1.73;;;;;;;14.00;45.21;98777.63;4981152;28;20030;-63
2021/05/21 00:24:11;;;;;;;6.22;1.58;;;;;;;13.76;44.97;98741.84;4965943;28;20038;-63
2021/05/21 00:26:36;;;;;;;6.45;1.83;;;;;;;13.88;44.00;98771.09;4980104;28;20104;-63
2021/05/21 00:29:03;;;;;;;5.80;1.90;;;;;;;13.88;44.67;98765.84;4961157;28;20038;-63
2021/05/21 00:31:28;;;;;;;5.80;1.10;;;;;;;13.61;44.94;98786.06;4980258;28;20851;-62
2021/05/21 00:33:53;;;;;;;3.15;0.85;;;;;;;13.30;45.55;98774.53;4980266;28;20062;-62
2021/05/21 00:36:19;;;;;;;4.20;1.15;;;;;;;13.44;45.71;98776.56;4982468;28;20125;-63
2021/05/21 00:38:44;;;;;;;5.22;1.10;;;;;;;13.28;46.01;98769.44;4977910;28;20039;-61
2021/05/21 00:41:10;;;;;;;4.55;1.30;;;;;;;13.44;45.69;98779.16;4997644;28;20112;-64
2021/05/21 00:43:35;;;;;;;4.47;1.30;;;;;;;13.38;46.04;98766.72;4981056;28;20034;-62
2021/05/21 00:46:01;;;;;;;5.10;1.48;;;;;;;13.52;45.84;98773.16;4956560;28;20038;-63
2021/05/21 00:48:27;;;;;;;4.30;1.30;;;;;;;12.92;46.89;98716.63;4962852;28;20450;-63
2021/05/21 00:50:52;;;;;;;4.82;1.50;;;;;;;13.33;47.17;98771.63;4980338;28;20448;-62
2021/05/21 00:53:18;;;;;;;4.68;1.33;;;;;;;13.08;46.60;98720.09;4991035;28;20046;-63
2021/05/21 00:55:44;;;;;;;4.07;1.25;;;;;;;13.38;46.48;98756.28;4979117;28;20030;-63
2021/05/21 00:58:09;;;;;;;5.78;1.35;;;;;;;13.22;46.31;98746.59;4980530;28;20456;-63
2021/05/21 01:00:35;;;;;;;3.63;1.30;;;;;;;13.16;46.75;98762.88;4982333;28;20045;-65
2021/05/21 01:03:00;;;;;;;5.05;1.50;;;;;;;13.24;46.32;98768.13;4989809;28;20121;-64
2021/05/21 01:05:25;;;;;;;4.63;1.30;;;;;;;13.28;46.13;98754.59;4981605;28;20045;-63
2021/05/21 01:07:51;;;;;;;6.22;1.42;;;;;;;13.24;46.52;98761.13;4993531;28;20022;-64
2021/05/21 01:10:17;;;;;;;6.20;1.38;;;;;;;13.33;46.66;98755.97;4997143;28;20048;-65
2021/05/21 01:12:42;;;;;;;4.85;1.40;;;;;;;13.19;46.67;98752.13;4963148;28;20432;-63
2021/05/21 01:15:08;;;;;;;4.25;1.40;;;;;;;12.99;47.07;98722.84;4962775;28;20387;-63
2021/05/21 01:17:34;;;;;;;5.43;1.33;;;;;;;13.25;46.71;98752.31;4961518;28;20042;-64
2021/05/21 01:19:59;;;;;;;4.30;1.30;;;;;;;12.95;46.95;98721.53;4979288;28;20117;-64
2021/05/21 01:22:25;;;;;;;4.68;1.50;;;;;;;12.65;48.13;98705.44;4964731;28;20048;-64
2021/05/21 01:24:50;;;;;;;4.93;1.30;;;;;;;13.03;47.97;98766.75;4977724;28;20397;-65
2021/05/21 01:27:17;;;;;;;4.57;1.30;;;;;;;12.95;47.51;98748.44;4980866;28;20038;-64
2021/05/21 01:29:43;;;;;;;3.60;1.15;;;;;;;13.04;47.42;98752.72;4979508;28;20026;-61
2021/05/21 01:32:10;;;;;;;4.80;1.13;;;;;;;12.93;47.62;98723.47;4979890;28;20061;-63
2021/05/21 01:34:38;;;;;;;5.05;1.50;;;;;;;12.84;47.89;98733.06;4978167;28;20034;-61
2021/05/21 01:37:14;;;;;;;4.93;1.40;;;;;;;12.72;48.40;98758.59;4978653;28;20444;-64
2021/05/21 01:39:39;;;;;;;5.63;1.40;;;;;;;12.37;48.51;98716.00;4962080;28;20140;-64
2021/05/21 01:42:05;;;;;;;4.13;1.30;;;;;;;12.80;48.19;98763.06;4975113;28;20072;-60
2021/05/21 01:44:30;;;;;;;4.82;1.42;;;;;;;12.88;48.62;98758.66;5006775;28;20085;-65
2021/05/21 01:46:56;;;;;;;4.10;1.42;;;;;;;12.93;48.71;98750.38;4978625;28;20034;-63
2021/05/21 01:49:21;;;;;;;4.40;1.50;;;;;;;12.97;48.77;98758.72;4980519;28;20576;-63
2021/05/21 01:51:53;;;;;;;5.72;1.42;;;;;;;12.85;49.13;98761.63;4980178;28;20100;-64
2021/05/21 01:54:18;;;;;;;4.13;1.33;;;;;;;12.65;49.36;98755.78;4978264;28;20500;-63
2021/05/21 01:56:47;;;;;;;4.78;1.40;;;;;;;12.86;48.75;98751.97;4964663;28;20148;-64
2021/05/21 01:59:12;;;;;;;4.03;1.20;;;;;;;12.60;49.28;98715.50;4963193;28;20034;-63
2021/05/21 02:01:38;;;;;;;4.55;1.40;;;;;;;12.68;49.62;98754.66;4991412;28;20065;-65
2021/05/21 02:04:04;;;;;;;4.25;1.30;;;;;;;12.68;50.00;98728.56;4969626;28;20357;-62
2021/05/21 02:06:30;;;;;;;4.88;1.50;;;;;;;12.65;49.49;98710.63;4959206;28;20034;-64
2021/05/21 02:08:55;;;;;;;5.47;1.50;;;;;;;12.80;49.96;98739.56;4990346;28;20049;-64
2021/05/21 02:11:20;;;;;;;4.93;1.40;;;;;;;12.50;49.62;98699.94;4963247;28;20037;-64
2021/05/21 02:13:46;;;;;;;3.63;1.33;;;;;;;12.71;49.79;98732.69;4983264;28;20109;-64
2021/05/21 02:16:12;;;;;;;4.00;1.40;;;;;;;12.76;50.44;98731.22;4993791;28;21442;-63
2021/05/21 02:18:37;;;;;;;5.63;1.55;;;;;;;12.78;50.31;98731.91;4980236;28;20038;-64
2021/05/21 02:21:04;;;;;;;4.30;1.40;;;;;;;12.81;49.77;98723.75;4980681;28;20026;-61
2021/05/21 02:23:29;;;;;;;4.50;1.42;;;;;;;12.82;50.10;98727.19;4980514;28;20138;-64
2021/05/21 02:25:54;;;;;;;5.28;1.65;;;;;;;12.86;50.55;98725.88;4982626;28;20039;-63
2021/05/21 02:28:20;;;;;;;5.68;1.60;;;;;;;12.66;50.97;98720.09;4978387;28;20133;-63
2021/05/21 02:30:45;;;;;;;5.88;1.50;;;;;;;12.58;51.40;98717.44;4977644;28;20121;-64
2021/05/21 02:33:11;;;;;;;5.70;1.60;;;;;;;12.60;51.23;98721.53;4980627;28;20106;-64
2021/05/21 02:35:36;;;;;;;5.72;1.65;;;;;;;12.45;51.00;98676.94;4977197;28;20036;-64
2021/05/21 02:38:02;;;;;;;4.97;1.50;;;;;;;12.84;50.42;98709.56;4982306;28;20117;-63
2021/05/21 02:40:27;;;;;;;5.20;1.70;;;;;;;12.43;50.96;98659.81;4983789;28;20028;-64
2021/05/21 02:42:54;;;;;;;4.55;1.50;;;;;;;12.67;51.11;98706.88;4984155;28;20117;-65
2021/05/21 02:45:20;;;;;;;3.78;1.27;;;;;;;12.71;51.39;98707.41;5006997;28;20108;-64
2021/05/21 02:47:45;;;;;;;4.75;1.63;;;;;;;12.56;51.45;98699.34;4984744;28;20084;-64
2021/05/21 02:50:10;;;;;;;5.47;1.60;;;;;;;12.66;51.13;98707.03;4978516;28;20072;-64
2021/05/21 02:52:36;;;;;;;5.10;1.50;;;;;;;12.62;51.34;98706.53;4981044;28;20027;-64
2021/05/21 02:55:03;;;;;;;4.38;1.40;;;;;;;12.55;51.67;98702.09;4984643;28;20349;-64
2021/05/21 02:57:29;;;;;;;4.32;1.52;;;;;;;12.42;52.10;98694.69;4982820;28;20272;-63
2021/05/21 02:59:54;;;;;;;5.03;1.55;;;;;;;12.47;51.96;98702.88;4984188;28;20045;-63
2021/05/21 03:02:21;;;;;;;5.13;1.40;;;;;;;12.48;51.77;98697.50;4985620;28;20042;-63
2021/05/21 03:04:46;;;;;;;5.20;1.40;;;;;;;12.40;51.67;98689.63;4964159;28;20046;-65
2021/05/21 03:07:12;;;;;;;4.88;1.52;;;;;;;12.16;51.58;98655.59;4981365;28;20484;-63
2021/05/21 03:09:37;;;;;;;6.47;1.70;;;;;;;12.20;51.45;98660.34;4980709;28;20053;-65
2021/05/21 03:12:03;;;;;;;5.00;1.52;;;;;;;12.44;51.80;98698.78;4980601;28;20378;-63
2021/05/21 03:14:28;;;;;;;5.25;1.60;;;;;;;12.55;51.42;98702.91;4979572;28;20035;-62
2021/05/21 03:16:54;;;;;;;7.13;1.80;;;;;;;12.44;52.11;98700.56;4981828;28;20034;-63
2021/05/21 03:19:19;;;;;;;6.10;1.70;;;;;;;12.24;52.29;98700.78;4981112;28;20192;-64
2021/05/21 03:21:45;;;;;;;4.68;1.50;;;;;;;12.20;52.57;98711.66;4984622;28;20042;-64
2021/05/21 03:24:10;;;;;;;6.10;1.83;;;;;;;12.30;52.08;98717.59;4983554;28;20026;-64
2021/05/21 03:26:36;;;;;;;4.40;1.63;;;;;;;12.37;52.27;98708.19;4981134;28;20069;-63
2021/05/21 03:29:01;;;;;;;5.82;1.83;;;;;;;12.33;51.61;98700.84;4982593;28;20479;-64
2021/05/21 03:31:26;;;;;;;5.40;1.70;;;;;;;11.99;52.72;98665.94;4980993;28;20062;-65
2021/05/21 03:33:52;;;;;;;6.38;1.83;;;;;;;12.23;53.51;98714.78;4973205;28;20035;-63
2021/05/21 03:36:17;;;;;;;5.60;1.35;;;;;;;12.24;53.13;98710.38;4980031;28;20030;-65
2021/05/21 03:38:43;;;;;;;6.03;1.65;;;;;;;12.23;52.95;98703.53;4981962;28;20026;-64
2021/05/21 03:41:09;;;;;;;8.55;1.77;;;;;;;12.17;53.37;98704.16;4985192;28;20590;-62
2021/05/21 03:43:34;;;;;;;5.63;1.75;;;;;;;12.21;52.98;98711.53;4978044;28;20034;-65
2021/05/21 03:45:59;;;;;;;5.13;1.80;;;;;;;12.23;53.26;98720.00;4981473;28;20096;-65
2021/05/21 03:48:25;;;;;;;6.05;1.65;;;;;;;12.38;52.93;98729.88;4975698;28;20061;-62
2021/05/21 03:50:51;;;;;;;5.22;1.33;;;;;;;12.41;52.37;98719.13;4983172;28;20030;-64
2021/05/21 03:53:16;;;;;;;5.70;1.13;;;;;;;12.16;51.82;98689.50;4984852;28;20030;-64
2021/05/21 03:55:42;;;;;;;4.28;1.33;;;;;;;12.17;52.60;98715.38;4973797;28;20485;-64
2021/05/21 03:58:07;;;;;;;6.43;1.50;;;;;;;12.24;53.00;98734.66;4966035;28;20034;-64
2021/05/21 04:00:32;;;;;;;4.47;1.40;;;;;;;12.11;53.34;98726.44;4990455;28;20056;-61
2021/05/21 04:02:58;;;;;;;5.40;1.60;;;;;;;12.09;53.78;98731.78;4977213;28;20473;-63
2021/05/21 04:05:23;;;;;;;5.30;1.58;;;;;;;11.98;53.39;98732.03;4982031;28;20050;-62
2021/05/21 04:07:49;;;;;;;7.68;1.85;;;;;;;11.82;53.53;98698.00;4984025;28;20036;-64
2021/05/21 04:10:15;;;;;;;5.03;1.38;;;;;;;11.96;52.52;98694.88;4974483;28;20038;-65
2021/05/21 04:12:42;;;;;;;6.60;1.85;;;;;;;12.04;54.14;98726.19;4994720;28;20030;-63
2021/05/21 04:15:08;;;;;;;6.53;1.77;;;;;;;12.05;54.04;98733.06;4977639;28;20489;-63
2021/05/21 04:17:33;;;;;;;7.00;2.05;;;;;;;12.23;53.08;98734.81;4982999;28;20133;-64
2021/05/21 04:19:59;;;;;;;6.88;1.90;;;;;;;12.11;53.25;98742.88;4957124;28;20145;-64
2021/05/21 04:22:25;;;;;;;7.35;1.90;;;;;;;12.11;53.39;98732.44;4975610;28;20029;-63
2021/05/21 04:24:50;;;;;;;8.00;1.90;;;;;;;12.07;53.52;98725.09;4983133;28;20072;-65
2021/05/21 04:27:16;;;;;;;5.38;2.08;;;;;;;11.88;53.24;98686.97;4982493;28;20484;-63
2021/05/21 04:29:41;;;;;;;5.60;2.00;;;;;;;12.18;53.68;98730.06;4979212;28;20030;-65
2021/05/21 04:32:07;;;;;;;6.75;2.00;;;;;;;12.13;53.49;98728.88;5006823;28;20074;-64
2021/05/21 04:34:33;;;;;;;6.07;1.77;;;;;;;12.28;53.48;98737.78;4996378;28;20092;-63
2021/05/21 04:36:58;;;;;;;6.30;1.80;;;;;;;12.26;53.09;98750.97;4983450;28;20033;-63
2021/05/21 04:39:25;;;;;;;5.32;1.75;;;;;;;12.12;53.15;98751.53;4979902;28;20030;-64
2021/05/21 04:41:50;;;;;;;7.57;1.70;;;;;;;12.27;53.22;98752.63;4967804;28;20054;-64
2021/05/21 04:44:16;;;;;;;5.90;1.90;;;;;;;12.33;53.05;98750.38;4980470;28;20081;-64
2021/05/21 04:46:41;;;;;;;9.80;1.85;;;;;;;12.44;51.91;98743.09;4981542;28;20096;-65
2021/05/21 04:49:07;;;;;;;8.00;2.08;;;;;;;12.27;52.12;98720.53;4965736;28;20507;-64
2021/05/21 04:51:32;;;;;;;6.90;1.77;;;;;;;12.40;52.76;98738.38;4991166;28;20501;-63
2021/05/21 04:54:04;;;;;;;6.22;1.75;;;;;;;12.52;52.84;98744.94;4977462;28;20556;-62
2021/05/21 04:56:30;;;;;;;8.82;2.00;;;;;;;12.56;52.43;98732.41;4961648;28;20031;-64
2021/05/21 04:58:55;;;;;;;5.32;1.70;;;;;;;12.56;52.60;98721.97;4984017;28;20034;-63
2021/05/21 05:01:21;;;;;;;5.82;1.90;;;;;;;12.69;52.52;98740.66;4981767;28;20034;-63
2021/05/21 05:03:46;;;;;;;8.25;1.77;;;;;;;12.76;52.58;98752.09;4981932;28;20038;-64
2021/05/21 05:06:12;;;;;;;5.13;1.70;;;;;;;12.84;51.40;98753.94;4975804;28;20055;-61
2021/05/21 05:08:38;;;;;;;5.85;1.60;;;;;;;12.80;50.97;98752.63;4962521;28;20038;-63
2021/05/21 05:11:04;;;;;;;4.70;1.50;;;;;;;12.95;51.53;98750.22;4976319;28;20535;-63
2021/05/21 05:13:29;;;;;;;7.00;1.70;;;;;;;12.59;51.88;98704.22;4980132;28;20030;-62
2021/05/21 05:15:55;;;;;;;6.78;1.80;;;;;;;12.90;50.73;98737.63;4975116;28;20038;-60
2021/05/21 05:18:21;;;;;;;5.35;1.55;;;;;;;13.01;50.89;98741.78;4973204;28;20046;-65
2021/05/21 05:20:47;;;;;;;6.80;1.40;;;;;;;13.14;50.28;98741.31;4980986;28;20391;-63
2021/05/21 05:23:13;;;;;;;5.85;1.60;;;;;;;12.96;50.67;98710.09;4978560;28;20050;-63
2021/05/21 05:25:42;;;;;;;6.47;1.40;;;;;;;13.31;51.07;98748.28;4953247;28;20037;-62
2021/05/21 05:28:16;;;;;;;4.68;1.50;;;;;;;13.28;51.48;98746.75;4976926;28;20029;-64
2021/05/21 05:30:42;;;;;;;5.15;1.30;;;;;;;12.84;52.68;98705.16;4986107;28;20113;-60
2021/05/21 05:33:07;;;;;;;4.40;1.52;;;;;;;13.02;53.54;98748.63;4980775;28;20657;-61
2021/05/21 05:35:33;;;;;;;6.07;1.52;;;;;;;13.04;53.59;98747.50;4979461;28;20027;-63
2021/05/21 05:37:58;;;;;;;4.80;1.45;;;;;;;13.06;53.81;98739.50;4964676;28;20060;-63
2021/05/21 05:40:30;;;;;;;5.15;1.30;;;;;;;13.12;53.06;98751.13;4978161;28;20434;-61
2021/05/21 05:42:59;;;;;;;4.97;1.30;;;;;;;13.05;52.51;98716.97;4976024;28;20038;-63
2021/05/21 05:45:24;;;;;;;6.55;1.30;;;;;;;13.48;52.94;98764.81;4972568;28;20046;-61
2021/05/21 05:47:50;;;;;;;4.32;1.25;;;;;;;13.54;52.93;98771.19;4971001;28;20022;-62
2021/05/21 05:50:15;;;;;;;3.47;1.10;;;;;;;13.56;52.60;98748.31;4981348;28;20100;-63
2021/05/21 05:52:40;;;;;;;6.72;1.25;;;;;;;13.54;52.98;98761.53;4976822;28;20033;-62
2021/05/21 05:55:07;;;;;;;4.90;1.80;;;;;;;13.26;53.39;98720.00;4970997;28;20109;-63
2021/05/21 05:57:32;;;;;;;17.83;1.70;;;;;;;13.49;53.92;98770.84;4975587;28;20110;-62
2021/05/21 05:59:57;;;;;;;4.57;1.30;;;;;;;13.26;55.28;98758.34;4986013;28;20038;-63
2021/05/21 06:02:23;;;;;;;7.43;1.40;;;;;;;13.38;54.84;98757.13;4980528;28;20065;-62
2021/05/21 06:04:48;;;;;;;4.90;1.30;;;;;;;13.48;54.11;98756.16;4980175;28;20025;-61
2021/05/21 06:07:14;;;;;;;3.83;1.10;;;;;;;13.57;53.99;98755.19;4980363;28;20064;-61
2021/05/21 06:09:39;;;;;;;5.80;1.15;;;;;;;13.64;53.52;98749.16;4979600;28;20084;-62
2021/05/21 06:12:05;;;;;;;4.35;1.10;;;;;;;13.41;53.25;98696.72;4977097;28;20034;-62
2021/05/21 06:14:30;;;;;;;3.55;1.10;;;;;;;13.84;53.16;98739.22;4977570;28;20038;-61
2021/05/21 06:16:56;;;;;;;6.00;1.33;;;;;;;13.94;52.26;98735.63;4983498;28;20484;-62
2021/05/21 06:19:21;;;;;;;17.50;3.45;;;;;;;13.97;53.04;98735.31;4973888;28;20081;-63
2021/05/21 06:21:47;;;;;;;10.82;1.70;;;;;;;13.49;53.39;98726.44;4978180;28;20677;-64
2021/05/21 06:24:14;;;;;;;25.35;4.07;;;;;;;13.44;53.62;98725.13;4978363;28;20046;-63
2021/05/21 06:26:43;;;;;;;9.48;1.40;;;;;;;13.43;54.71;98723.50;4980554;28;20504;-62
2021/05/21 06:29:08;;;;;;;4.13;0.80;;;;;;;13.44;53.96;98740.00;4982290;28;20398;-61
2021/05/21 06:31:33;;;;;;;5.25;0.90;;;;;;;13.30;54.96;98735.34;4978892;28;20022;-62
2021/05/21 06:33:59;;;;;;;14.00;1.90;;;;;;;13.30;55.52;98724.91;4981246;28;20088;-63
2021/05/21 06:36:25;;;;;;;5.93;1.27;;;;;;;13.43;55.20;98723.50;4972910;28;20205;-61
2021/05/21 06:38:50;;;;;;;4.53;1.10;;;;;;;13.36;55.93;98716.44;4978016;28;20110;-63
2021/05/21 06:41:16;;;;;;;3.67;1.00;;;;;;;13.57;55.42;98716.81;4956353;28;20100;-62
2021/05/21 06:43:41;;;;;;;6.55;1.27;;;;;;;13.63;54.25;98712.75;4978443;28;20023;-62
2021/05/21 06:46:06;;;;;;;3.55;1.02;;;;;;;13.66;54.76;98722.88;4980764;28;20038;-63
2021/05/21 06:48:32;;;;;;;5.25;1.10;;;;;;;13.69;55.52;98732.19;4980963;28;20401;-63
2021/05/21 06:51:06;;;;;;;4.53;1.10;;;;;;;13.48;54.34;98694.28;4977214;28;20058;-61
2021/05/21 06:53:31;;;;;;;4.03;1.00;;;;;;;13.70;53.00;98705.91;4957225;28;20128;-62
2021/05/21 06:55:58;;;;;;;3.92;0.90;;;;;;;13.91;51.78;98739.41;4976516;28;20598;-63
2021/05/21 06:58:25;;;;;;;3.03;0.80;;;;;;;13.85;52.10;98734.81;4978580;28;20023;-63
2021/05/21 07:00:51;;;;;;;4.72;0.85;;;;;;;13.77;52.92;98730.41;4967092;28;20026;-62
2021/05/21 07:03:17;;;;;;;6.07;1.20;;;;;;;13.65;53.71;98732.53;4964108;28;20072;-62
2021/05/21 07:05:43;;;;;;;5.55;1.00;;;;;;;13.67;53.57;98719.28;4964344;28;20464;-62
2021/05/21 07:08:10;;;;;;;4.07;1.02;;;;;;;13.76;54.29;98727.94;4979810;28;20118;-62
2021/05/21 07:10:35;;;;;;;6.80;0.90;;;;;;;13.93;54.03;98718.34;4972749;28;20041;-64
2021/05/21 07:13:12;;;;;;;3.58;0.85;;;;;;;14.15;54.57;98712.44;4977736;28;20093;-62
2021/05/21 07:15:38;;;;;;;4.60;0.90;;;;;;;14.09;54.83;98673.03;4976852;28;20127;-62
2021/05/21 07:18:04;;;;;;;3.72;0.85;;;;;;;14.13;54.57;98705.75;4979949;28;20155;-61
2021/05/21 07:20:30;;;;;;;2.83;0.77;;;;;;;14.03;54.34;98691.03;4978649;28;20098;-62
2021/05/21 07:22:55;;;;;;;2.47;0.80;;;;;;;13.99;54.87;98702.78;4976664;28;20032;-62
2021/05/21 07:25:21;;;;;;;3.30;0.85;;;;;;;13.58;54.57;98610.53;4980741;28;20052;-60
2021/05/21 07:27:46;;;;;;;3.15;0.75;;;;;;;14.15;53.48;98693.31;4982976;28;20023;-61
2021/05/21 07:30:12;;;;;;;3.60;0.80;;;;;;;14.14;51.67;98691.66;4982169;28;20035;-63
2021/05/21 07:32:38;;;;;;;2.90;0.70;;;;;;;14.15;52.90;98688.09;4980465;28;20030;-63
2021/05/21 07:35:04;;;;;;;4.60;0.90;;;;;;;14.25;53.26;98685.28;4976048;28;20026;-60
2021/05/21 07:37:30;;;;;;;2.65;0.70;;;;;;;14.29;52.09;98671.72;5000577;28;20792;-64
2021/05/21 07:39:55;;;;;;;4.43;1.02;;;;;;;14.53;50.87;98690.94;4979621;28;20038;-61
2021/05/21 07:42:21;;;;;;;3.25;0.80;;;;;;;14.71;50.05;98707.28;4982115;28;20326;-60
2021/05/21 07:44:47;;;;;;;3.13;0.90;;;;;;;14.80;49.58;98697.56;4994946;28;20022;-62
2021/05/21 07:47:12;;;;;;;4.25;0.80;;;;;;;14.86;49.60;98696.91;4982894;28;20502;-62
2021/05/21 07:49:38;;;;;;;5.18;1.00;;;;;;;14.91;49.95;98692.00;4980265;28;20041;-59
2021/05/21 07:52:03;;;;;;;5.88;1.00;;;;;;;14.88;50.42;98694.13;4973003;28;21507;-61
2021/05/21 07:54:29;;;;;;;3.75;0.85;;;;;;;14.60;50.59;98665.75;4982987;28;20129;-62
2021/05/21 07:56:54;;;;;;;5.72;1.08;;;;;;;14.80;51.22;98677.47;4978736;28;20158;-61
2021/05/21 07:59:20;;;;;;;2.97;0.85;;;;;;;14.87;51.52;98692.50;4983985;28;20045;-62
2021/05/21 08:01:45;;;;;;;6.15;1.00;;;;;;;14.94;52.54;98696.06;4980963;28;20026;-63
2021/05/21 08:04:11;;;;;;;32.35;2.83;;;;;;;14.92;51.38;98641.25;4981935;28;20030;-63
2021/05/21 08:06:38;;;;;;;3.42;0.75;;;;;;;14.98;51.31;98624.03;4982625;28;20117;-63
2021/05/21 08:09:05;;;;;;;2.50;0.63;;;;;;;15.00;47.93;98614.19;4966847;28;20137;-60
2021/05/21 08:11:31;;;;;;;2.97;0.75;;;;;;;15.17;48.35;98607.06;4983342;28;20030;-63
2021/05/21 08:13:57;;;;;;;6.43;0.82;;;;;;;15.97;46.38;98646.91;4975386;28;20109;-62
2021/05/21 08:16:22;;;;;;;3.67;0.70;;;;;;;16.30;45.60;98644.75;4966263;28;20022;-62
2021/05/21 08:18:47;;;;;;;3.72;0.93;;;;;;;16.81;42.85;98641.38;4979842;28;20076;-61
2021/05/21 08:21:13;;;;;;;3.50;0.80;;;;;;;17.32;41.94;98643.16;4984044;28;20031;-63
2021/05/21 08:23:38;;;;;;;3.03;0.80;;;;;;;17.21;43.11;98650.56;4980400;28;20060;-61
2021/05/21 08:26:06;;;;;;;3.42;0.80;;;;;;;17.09;43.87;98652.84;4982670;28;20547;-62
2021/05/21 08:28:35;;;;;;;10.65;1.20;;;;;;;16.84;44.84;98667.31;4981639;28;20061;-62
2021/05/21 08:31:01;;;;;;;4.93;0.87;;;;;;;16.56;45.97;98667.94;4997016;28;20030;-60
2021/05/21 08:33:27;;;;;;;3.55;1.10;;;;;;;16.37;46.76;98629.94;4978178;28;20787;-61
2021/05/21 08:35:52;;;;;;;4.00;0.90;;;;;;;16.17;46.55;98640.13;4974518;28;20026;-63
2021/05/21 08:38:18;;;;;;;5.63;0.90;;;;;;;16.13;47.20;98670.34;4984437;28;20030;-61
2021/05/21 08:40:43;;;;;;;4.82;0.90;;;;;;;15.83;48.57;98627.56;4981444;28;20509;-62
2021/05/21 08:43:10;;;;;;;3.03;0.82;;;;;;;15.91;47.28;98666.78;4942919;28;20733;-60
2021/05/21 08:45:37;;;;;;;3.08;0.88;;;;;;;16.09;47.83;98671.72;4980918;28;20041;-62
2021/05/21 08:48:03;;;;;;;2.13;0.63;;;;;;;15.88;45.91;98633.06;4963055;28;20050;-61
2021/05/21 08:50:29;;;;;;;2.85;0.80;;;;;;;16.20;45.23;98655.53;4961575;28;20145;-61
2021/05/21 08:52:54;;;;;;;3.35;0.70;;;;;;;16.34;44.15;98659.16;4963873;28;20023;-60
2021/05/21 08:55:20;;;;;;;1.50;0.60;;;;;;;16.31;42.56;98664.75;4981247;28;20029;-61
2021/05/21 08:57:45;;;;;;;3.33;0.75;;;;;;;16.23;43.67;98649.13;4978383;28;20026;-62
2021/05/21 09:00:12;;;;;;;3.10;0.70;;;;;;;16.02;42.41;98637.50;4981719;28;20067;-61
2021/05/21 09:02:38;;;;;;;3.80;1.10;;;;;;;15.93;43.64;98642.03;4994805;28;20038;-61
2021/05/21 09:05:06;;;;;;;5.05;1.20;;;;;;;15.95;45.48;98634.81;4959913;28;20038;-60
2021/05/21 09:07:39;;;;;;;5.72;1.00;;;;;;;16.10;45.55;98649.75;4985271;28;20109;-61
2021/05/21 09:10:25;;;;;;;4.93;0.90;;;;;;;16.33;45.41;98647.03;4977267;28;20037;-61
2021/05/21 09:12:52;;;;;;;2.92;0.75;;;;;;;16.36;45.73;98632.75;4977638;28;20162;-62
2021/05/21 09:15:19;;;;;;;2.97;0.90;;;;;;;16.57;43.37;98629.38;4982064;28;20035;-60
2021/05/21 09:17:58;;;;;;;5.47;0.80;;;;;;;16.73;40.94;98640.47;4982234;28;20030;-61
2021/05/21 09:20:30;;;;;;;7.47;0.88;;;;;;;16.50;37.56;98593.38;4979319;28;20034;-60
2021/05/21 09:23:06;;;;;;;2.70;0.70;;;;;;;16.40;37.84;98573.66;4980275;28;20068;-61
2021/05/21 09:25:45;;;;;;;3.60;0.65;;;;;;;16.78;37.33;98636.50;4972026;28;20031;-61
2021/05/21 09:28:30;;;;;;;2.25;0.70;;;;;;;16.86;36.90;98637.22;4981370;28;20053;-61
2021/05/21 09:31:17;;;;;;;3.95;0.73;;;;;;;16.89;35.62;98622.94;4982601;28;20026;-61
2021/05/21 09:33:44;;;;;;;4.32;0.80;;;;;;;17.01;35.49;98626.72;4978031;28;20030;-61
2021/05/21 09:36:10;;;;;;;3.90;0.70;;;;;;;17.05;35.20;98627.97;4979556;28;20493;-61
2021/05/21 09:38:49;;;;;;;4.43;0.80;;;;;;;17.19;36.01;98625.47;4979348;28;20118;-62
2021/05/21 09:41:14;;;;;;;626.65;59.00;;;;;;;17.48;36.15;98614.81;4974166;28;20061;-61
2021/05/21 09:43:39;;;;;;;3.80;0.70;;;;;;;17.48;35.54;98569.31;4967718;28;20497;-60
2021/05/21 09:46:09;;;;;;;4.20;0.80;;;;;;;17.93;36.31;98604.06;4980361;28;20065;-60
2021/05/21 09:48:35;;;;;;;3.47;1.10;;;;;;;17.97;36.36;98586.09;4976447;28;20088;-60
2021/05/21 09:51:00;;;;;;;4.07;0.80;;;;;;;18.27;38.28;98617.44;4978781;28;20034;-62
2021/05/21 09:53:26;;;;;;;5.13;0.70;;;;;;;18.28;34.54;98616.44;4979406;28;20026;-61
2021/05/21 09:55:52;;;;;;;3.53;0.70;;;;;;;17.77;34.36;98578.84;4979076;28;20026;-60
2021/05/21 09:58:24;;;;;;;2.90;0.75;;;;;;;18.02;35.61;98621.34;4979776;28;20057;-61
2021/05/21 10:01:24;;;;;;;5.30;1.00;;;;;;;18.38;34.20;98614.25;4978681;28;20053;-61
2021/05/21 10:03:52;;;;;;;3.15;0.70;;;;;;;18.21;35.32;98604.03;4991523;28;20045;-60
2021/05/21 10:06:18;;;;;;;3.78;0.80;;;;;;;17.99;36.89;98590.16;4898025;28;20058;-60
2021/05/21 10:08:46;;;;;;;4.07;0.90;;;;;;;17.97;38.60;98586.91;4946372;28;20112;-60
2021/05/21 10:11:11;;;;;;;3.58;0.80;;;;;;;17.61;40.19;98590.44;4974055;28;20473;-61
2021/05/21 10:13:37;;;;;;;4.50;0.95;;;;;;;17.85;39.36;98586.63;4982192;28;20370;-62
2021/05/21 10:16:04;;;;;;;4.28;1.20;;;;;;;17.85;35.64;98544.56;4992012;28;20033;-62
2021/05/21 10:18:30;;;;;;;5.32;1.67;;;;;;;18.14;33.38;98558.44;4976415;28;20042;-62
2021/05/21 10:20:56;;;;;;;4.55;1.42;;;;;;;18.24;34.21;98535.22;4976195;28;20846;-61
2021/05/21 10:23:24;;;;;;;7.30;1.35;;;;;;;18.60;33.61;98555.22;4970240;28;20045;-62
2021/05/21 10:25:52;;;;;;;6.25;1.65;;;;;;;18.53;33.47;98530.69;4973246;28;20109;-61
2021/05/21 10:28:22;;;;;;;4.68;1.50;;;;;;;18.55;32.41;98536.56;4977799;28;20022;-62
2021/05/21 10:30:49;;;;;;;6.90;1.48;;;;;;;18.86;32.96;98577.41;4973080;28;20030;-62
2021/05/21 10:33:17;;;;;;;7.35;1.75;;;;;;;18.51;33.32;98521.34;4994655;28;20133;-61
2021/05/21 10:35:42;;;;;;;5.63;1.48;;;;;;;18.71;33.00;98559.09;4973460;28;20030;-62
2021/05/21 10:38:21;;;;;;;5.97;1.60;;;;;;;18.67;33.17;98559.69;4976476;28;20189;-61
2021/05/21 10:41:25;;;;;;;6.10;1.48;;;;;;;18.89;33.42;98552.47;4978355;28;20116;-61
2021/05/21 10:43:52;;;;;;;6.82;1.77;;;;;;;18.99;32.58;98543.16;4975919;28;20022;-61
2021/05/21 10:46:19;;;;;;;4.20;1.30;;;;;;;18.75;34.40;98502.38;4981039;28;20165;-62
2021/05/21 10:48:51;;;;;;;4.18;1.17;;;;;;;18.55;34.55;98494.44;4976677;28;20137;-60
2021/05/21 10:51:16;;;;;;;4.68;1.20;;;;;;;18.71;33.62;98501.16;4994721;28;20045;-61
2021/05/21 10:53:45;;;;;;;5.47;1.88;;;;;;;18.77;33.70;98531.16;4979855;28;20506;-62
2021/05/21 10:56:10;;;;;;;4.45;1.42;;;;;;;18.76;33.58;98542.69;4976879;28;20130;-62
2021/05/21 10:58:44;;;;;;;4.88;1.33;;;;;;;18.95;34.46;98536.69;4953184;28;20046;-61
2021/05/21 11:01:17;;;;;;;4.63;1.30;;;;;;;19.05;34.54;98530.22;4964144;28;20066;-61
2021/05/21 11:04:08;;;;;;;4.82;1.10;;;;;;;18.91;34.97;98542.53;4963962;28;20046;-62
2021/05/21 11:06:48;;;;;;;5.47;1.20;;;;;;;19.08;33.88;98525.34;4976354;28;20026;-61
2021/05/21 11:09:20;;;;;;;;;;;;;;;19.15;33.66;98514.81;4985188;28;20022;-61
2021/05/21 11:12:07;;;;;;;3.88;1.20;;;;;;;19.18;34.46;98519.66;4978435;28;19917;-60
2021/05/21 11:14:39;;;;;;;5.22;1.30;;;;;;;19.13;33.33;98530.00;4975380;28;20362;-61
2021/05/21 11:17:15;;;;;;;5.15;1.38;;;;;;;19.15;33.83;98515.63;4983335;28;20041;-61
2021/05/21 11:19:45;;;;;;;4.70;1.45;;;;;;;19.46;32.41;98523.91;4983400;28;20023;-60
2021/05/21 11:22:26;;;;;;;4.57;1.85;;;;;;;19.64;32.69;98526.75;4982387;28;20165;-60
2021/05/21 11:25:00;;;;;;;6.32;1.60;;;;;;;19.57;32.73;98507.50;4978572;28;20080;-62
2021/05/21 11:27:29;;;;;;;8.63;1.60;;;;;;;19.59;33.60;98523.94;4978975;28;20386;-63
2021/05/21 11:29:55;;;;;;;;;;;;;;;19.50;32.91;98517.25;4999092;28;20393;-63
2021/05/21 11:32:23;;;;;;;5.57;1.80;;;;;;;19.50;32.71;98493.50;4984380;28;19914;-63
2021/05/21 11:34:49;;;;;;;5.22;1.48;;;;;;;19.49;33.51;98470.78;4985927;28;20030;-63